Terminal Aerodrome Forecast
Issued by NWS

Home | Current Version | Previous Version | Text Only | Print | Product List | Glossary On
Versions: 1 2 3 4 5 6 7 8 9 10 11 12 13 14 15 16 17
000
FTUS45 KTFX 281747
TAFCTB
TAF
KCTB 281747Z 2818/2918 25018KT 4SM FU SCT040 BKN120
     FM290200 25008KT 5SM FU SCT030 BKN060=

USA.gov is the U.S. government's official web portal to all federal, state and local government web resources and services.